sensor_id;sensor_type;location;lat;lon;timestamp;pressure;altitude;pressure_sealevel;temperature;humidity
50166;BME280;36071;48.140;11.516;2023-05-08T00:03:54;95740.0;;;16.9;68.4
50166;BME280;36071;48.140;11.516;2023-05-08T00:08:54;95750.0;;;16.9;68.3
50166;BME280;36071;48.140;11.516;2023-05-08T00:13:54;95740.0;;;16.8;67.6
50166;BME280;36071;48.140;11.516;2023-05-08T00:18:54;95750.0;;;16.7;68.5
50166;BME280;36071;48.140;11.516;2023-05-08T00:23:54;95750.0;;;16.6;68.9
50166;BME280;36071;48.140;11.516;2023-05-08T00:28:54;95760.0;;;16.7;68.6
50166;BME280;36071;48.140;11.516;2023-05-08T00:33:54;95760.0;;;16.6;68.7
50166;BME280;36071;48.140;11.516;2023-05-08T00:38:54;95760.0;;;16.6;67.9
50166;BME280;36071;48.140;11.516;2023-05-08T00:43:54;95760.0;;;16.5;67.8
50166;BME280;36071;48.140;11.516;2023-05-08T00:48:54;95750.0;;;16.4;68.1
50166;BME280;36071;48.140;11.516;2023-05-08T00:53:54;95750.0;;;16.4;67.6
50166;BME280;36071;48.140;11.516;2023-05-08T00:58:54;95760.0;;;16.4;68.1
50166;BME280;36071;48.140;11.516;2023-05-08T01:03:54;95760.0;;;16.4;67.8
50166;BME280;36071;48.140;11.516;2023-05-08T01:08:54;95760.0;;;16.4;67.1
50166;BME280;36071;48.140;11.516;2023-05-08T01:13:56;95760.0;;;16.4;67.2
50166;BME280;36071;48.140;11.516;2023-05-08T01:18:55;95760.0;;;16.3;66.6
50166;BME280;36071;48.140;11.516;2023-05-08T01:24:11;95760.0;;;16.2;65.5
50166;BME280;36071;48.140;11.516;2023-05-08T01:29:02;95770.0;;;16.2;64.5
50166;BME280;36071;48.140;11.516;2023-05-08T01:33:55;95770.0;;;16.0;66.2
50166;BME280;36071;48.140;11.516;2023-05-08T01:38:55;95780.0;;;16.0;67.1
50166;BME280;36071;48.140;11.516;2023-05-08T01:43:54;95790.0;;;16.0;66.6
50166;BME280;36071;48.140;11.516;2023-05-08T01:48:55;95790.0;;;16.0;67.6
50166;BME280;36071;48.140;11.516;2023-05-08T01:53:54;95790.0;;;15.9;66.9
50166;BME280;36071;48.140;11.516;2023-05-08T01:58:54;95800.0;;;15.8;71.1
50166;BME280;36071;48.140;11.516;2023-05-08T02:03:54;95790.0;;;15.9;74.5
50166;BME280;36071;48.140;11.516;2023-05-08T02:08:54;95800.0;;;15.9;76.5
50166;BME280;36071;48.140;11.516;2023-05-08T02:13:54;95800.0;;;15.9;76.4
50166;BME280;36071;48.140;11.516;2023-05-08T02:18:54;95800.0;;;15.8;75.9
50166;BME280;36071;48.140;11.516;2023-05-08T02:23:55;95800.0;;;15.8;71.7
50166;BME280;36071;48.140;11.516;2023-05-08T02:28:54;95800.0;;;15.7;68.0
50166;BME280;36071;48.140;11.516;2023-05-08T02:33:54;95800.0;;;15.6;69.3
50166;BME280;36071;48.140;11.516;2023-05-08T02:38:54;95800.0;;;15.6;68.6
50166;BME280;36071;48.140;11.516;2023-05-08T02:43:54;95810.0;;;15.5;67.2
50166;BME280;36071;48.140;11.516;2023-05-08T02:48:55;95820.0;;;15.4;66.3
50166;BME280;36071;48.140;11.516;2023-05-08T02:53:55;95820.0;;;15.4;67.3
50166;BME280;36071;48.140;11.516;2023-05-08T02:58:54;95810.0;;;15.3;68.4
50166;BME280;36071;48.140;11.516;2023-05-08T03:03:55;95820.0;;;15.4;67.8
50166;BME280;36071;48.140;11.516;2023-05-08T03:08:54;95820.0;;;15.3;69.0
50166;BME280;36071;48.140;11.516;2023-05-08T03:13:54;95820.0;;;15.3;68.7
50166;BME280;36071;48.140;11.516;2023-05-08T03:18:55;95820.0;;;15.3;68.3
50166;BME280;36071;48.140;11.516;2023-05-08T03:23:54;95820.0;;;15.2;68.3
50166;BME280;36071;48.140;11.516;2023-05-08T03:28:54;95810.0;;;15.1;68.4
50166;BME280;36071;48.140;11.516;2023-05-08T03:33:54;95820.0;;;15.0;68.1
50166;BME280;36071;48.140;11.516;2023-05-08T03:38:54;95820.0;;;14.9;68.7
50166;BME280;36071;48.140;11.516;2023-05-08T03:43:54;95820.0;;;14.9;68.6
50166;BME280;36071;48.140;11.516;2023-05-08T03:48:54;95830.0;;;14.9;68.1
50166;BME280;36071;48.140;11.516;2023-05-08T03:53:54;95830.0;;;14.7;68.6
50166;BME280;36071;48.140;11.516;2023-05-08T03:58:55;95840.0;;;14.6;68.8
50166;BME280;36071;48.140;11.516;2023-05-08T04:03:55;95840.0;;;14.7;68.1
50166;BME280;36071;48.140;11.516;2023-05-08T04:08:56;95840.0;;;14.6;68.6
50166;BME280;36071;48.140;11.516;2023-05-08T04:13:59;95850.0;;;14.6;69.8
50166;BME280;36071;48.140;11.516;2023-05-08T04:18:56;95850.0;;;14.5;68.9
50166;BME280;36071;48.140;11.516;2023-05-08T04:23:55;95850.0;;;14.5;69.4
50166;BME280;36071;48.140;11.516;2023-05-08T04:28:54;95850.0;;;14.5;68.3
50166;BME280;36071;48.140;11.516;2023-05-08T04:33:54;95860.0;;;14.4;69.0
50166;BME280;36071;48.140;11.516;2023-05-08T04:38:54;95860.0;;;14.2;69.0
50166;BME280;36071;48.140;11.516;2023-05-08T04:43:54;95870.0;;;14.2;70.2
50166;BME280;36071;48.140;11.516;2023-05-08T04:48:54;95870.0;;;14.3;69.2
50166;BME280;36071;48.140;11.516;2023-05-08T04:53:54;95880.0;;;14.3;69.5
50166;BME280;36071;48.140;11.516;2023-05-08T04:58:54;95880.0;;;14.2;69.1
50166;BME280;36071;48.140;11.516;2023-05-08T05:03:54;95890.0;;;14.2;68.8
50166;BME280;36071;48.140;11.516;2023-05-08T05:08:54;95890.0;;;14.2;69.2
50166;BME280;36071;48.140;11.516;2023-05-08T05:13:54;95890.0;;;14.2;69.4
50166;BME280;36071;48.140;11.516;2023-05-08T05:18:54;95900.0;;;14.1;69.6
50166;BME280;36071;48.140;11.516;2023-05-08T05:23:54;95900.0;;;14.0;69.9
50166;BME280;36071;48.140;11.516;2023-05-08T05:28:54;95900.0;;;14.0;69.3
50166;BME280;36071;48.140;11.516;2023-05-08T05:33:54;95900.0;;;14.0;68.8
50166;BME280;36071;48.140;11.516;2023-05-08T05:38:54;95910.0;;;14.0;69.9
50166;BME280;36071;48.140;11.516;2023-05-08T05:43:54;95910.0;;;13.9;70.4
50166;BME280;36071;48.140;11.516;2023-05-08T05:48:54;95920.0;;;14.0;70.5
50166;BME280;36071;48.140;11.516;2023-05-08T05:53:54;95920.0;;;13.9;70.3
50166;BME280;36071;48.140;11.516;2023-05-08T05:58:54;95930.0;;;13.8;70.5
50166;BME280;36071;48.140;11.516;2023-05-08T06:03:54;95930.0;;;13.8;70.6
50166;BME280;36071;48.140;11.516;2023-05-08T06:08:54;95930.0;;;13.9;70.8
50166;BME280;36071;48.140;11.516;2023-05-08T06:13:54;95930.0;;;13.9;70.6
50166;BME280;36071;48.140;11.516;2023-05-08T06:18:54;95930.0;;;13.8;71.0
50166;BME280;36071;48.140;11.516;2023-05-08T06:23:54;95930.0;;;13.8;70.6
50166;BME280;36071;48.140;11.516;2023-05-08T06:28:54;95930.0;;;13.7;71.6
50166;BME280;36071;48.140;11.516;2023-05-08T06:33:54;95930.0;;;13.7;71.4
50166;BME280;36071;48.140;11.516;2023-05-08T06:38:54;95940.0;;;13.6;72.6
50166;BME280;36071;48.140;11.516;2023-05-08T06:43:54;95940.0;;;13.6;73.2
50166;BME280;36071;48.140;11.516;2023-05-08T06:48:54;95940.0;;;13.7;72.3
50166;BME280;36071;48.140;11.516;2023-05-08T06:53:54;95940.0;;;13.9;71.7
50166;BME280;36071;48.140;11.516;2023-05-08T06:58:54;95940.0;;;14.0;72.0
50166;BME280;36071;48.140;11.516;2023-05-08T07:03:54;95960.0;;;14.1;71.1
50166;BME280;36071;48.140;11.516;2023-05-08T07:08:54;95950.0;;;14.1;69.1
50166;BME280;36071;48.140;11.516;2023-05-08T07:13:54;95960.0;;;14.1;70.9
50166;BME280;36071;48.140;11.516;2023-05-08T07:18:54;95950.0;;;14.2;69.7
50166;BME280;36071;48.140;11.516;2023-05-08T07:23:54;95950.0;;;14.3;68.9
50166;BME280;36071;48.140;11.516;2023-05-08T07:28:54;95960.0;;;14.5;70.2
50166;BME280;36071;48.140;11.516;2023-05-08T07:33:54;95960.0;;;14.5;68.7
50166;BME280;36071;48.140;11.516;2023-05-08T07:38:54;95960.0;;;14.4;67.8
50166;BME280;36071;48.140;11.516;2023-05-08T07:43:54;95970.0;;;14.6;67.7
50166;BME280;36071;48.140;11.516;2023-05-08T07:48:54;95970.0;;;14.5;67.5
50166;BME280;36071;48.140;11.516;2023-05-08T07:53:54;95970.0;;;14.5;66.8
50166;BME280;36071;48.140;11.516;2023-05-08T07:58:54;95960.0;;;14.4;65.5
50166;BME280;36071;48.140;11.516;2023-05-08T08:03:54;95960.0;;;14.6;66.5
50166;BME280;36071;48.140;11.516;2023-05-08T08:08:54;95970.0;;;14.8;66.4
50166;BME280;36071;48.140;11.516;2023-05-08T08:13:54;95960.0;;;15.0;64.7
50166;BME280;36071;48.140;11.516;2023-05-08T08:18:54;95960.0;;;15.4;64.6
50166;BME280;36071;48.140;11.516;2023-05-08T08:23:54;95970.0;;;15.6;64.0
50166;BME280;36071;48.140;11.516;2023-05-08T08:28:54;95970.0;;;15.8;61.7
50166;BME280;36071;48.140;11.516;2023-05-08T08:33:54;95970.0;;;16.1;60.7
50166;BME280;36071;48.140;11.516;2023-05-08T08:38:54;95970.0;;;16.6;60.7
50166;BME280;36071;48.140;11.516;2023-05-08T08:43:54;95960.0;;;16.8;59.1
50166;BME280;36071;48.140;11.516;2023-05-08T08:48:54;95960.0;;;17.6;56.2
50166;BME280;36071;48.140;11.516;2023-05-08T08:53:58;95950.0;;;18.0;53.2
50166;BME280;36071;48.140;11.516;2023-05-08T08:58:55;95960.0;;;18.5;51.5
50166;BME280;36071;48.140;11.516;2023-05-08T09:03:55;95950.0;;;19.2;52.2
50166;BME280;36071;48.140;11.516;2023-05-08T09:08:54;95820.0;;;19.1;50.4
50166;BME280;36071;48.140;11.516;2023-05-08T09:13:54;95950.0;;;19.6;50.7
50166;BME280;36071;48.140;11.516;2023-05-08T09:18:54;95950.0;;;20.0;52.9
50166;BME280;36071;48.140;11.516;2023-05-08T09:23:54;95960.0;;;20.6;47.6
50166;BME280;36071;48.140;11.516;2023-05-08T09:29:06;95960.0;;;20.5;48.2
50166;BME280;36071;48.140;11.516;2023-05-08T09:33:54;95960.0;;;20.5;48.8
50166;BME280;36071;48.140;11.516;2023-05-08T09:38:54;95960.0;;;20.8;48.3
50166;BME280;36071;48.140;11.516;2023-05-08T09:44:01;95960.0;;;21.0;47.6
50166;BME280;36071;48.140;11.516;2023-05-08T09:53:55;95960.0;;;21.1;48.4
50166;BME280;36071;48.140;11.516;2023-05-08T09:58:54;95960.0;;;21.3;47.4
50166;BME280;36071;48.140;11.516;2023-05-08T10:03:54;95960.0;;;21.3;48.1
50166;BME280;36071;48.140;11.516;2023-05-08T10:09:09;95960.0;;;21.2;47.2
50166;BME280;36071;48.140;11.516;2023-05-08T10:13:54;95910.0;;;20.8;48.0
50166;BME280;36071;48.140;11.516;2023-05-08T10:18:56;95960.0;;;21.2;46.8
50166;BME280;36071;48.140;11.516;2023-05-08T10:23:55;95930.0;;;21.1;46.5
50166;BME280;36071;48.140;11.516;2023-05-08T10:28:54;95950.0;;;21.5;46.8
50166;BME280;36071;48.140;11.516;2023-05-08T10:33:54;95940.0;;;21.7;47.0
50166;BME280;36071;48.140;11.516;2023-05-08T10:38:55;95950.0;;;21.7;47.7
50166;BME280;36071;48.140;11.516;2023-05-08T10:43:54;95940.0;;;21.5;47.5
50166;BME280;36071;48.140;11.516;2023-05-08T10:48:59;95940.0;;;21.5;46.4
50166;BME280;36071;48.140;11.516;2023-05-08T10:53:56;95940.0;;;21.8;47.8
50166;BME280;36071;48.140;11.516;2023-05-08T10:58:54;95940.0;;;21.6;47.3
50166;BME280;36071;48.140;11.516;2023-05-08T11:03:54;95940.0;;;21.7;46.9
50166;BME280;36071;48.140;11.516;2023-05-08T11:08:54;95930.0;;;21.6;46.2
50166;BME280;36071;48.140;11.516;2023-05-08T11:13:57;95940.0;;;21.3;47.0
50166;BME280;36071;48.140;11.516;2023-05-08T11:19:15;95930.0;;;21.3;47.6
50166;BME280;36071;48.140;11.516;2023-05-08T11:23:55;95930.0;;;21.4;46.1
50166;BME280;36071;48.140;11.516;2023-05-08T11:28:54;95930.0;;;21.4;46.7
50166;BME280;36071;48.140;11.516;2023-05-08T11:33:54;95930.0;;;21.5;46.0
50166;BME280;36071;48.140;11.516;2023-05-08T11:39:04;95930.0;;;21.2;46.8
50166;BME280;36071;48.140;11.516;2023-05-08T11:44:15;95920.0;;;21.2;46.8
50166;BME280;36071;48.140;11.516;2023-05-08T11:48:57;95940.0;;;21.0;48.4
50166;BME280;36071;48.140;11.516;2023-05-08T11:53:54;95930.0;;;20.9;49.5
50166;BME280;36071;48.140;11.516;2023-05-08T11:59:02;95930.0;;;20.8;47.3
50166;BME280;36071;48.140;11.516;2023-05-08T12:03:58;95940.0;;;20.9;46.3
50166;BME280;36071;48.140;11.516;2023-05-08T12:08:54;95930.0;;;20.8;45.7
50166;BME280;36071;48.140;11.516;2023-05-08T12:13:54;95940.0;;;20.4;46.7
50166;BME280;36071;48.140;11.516;2023-05-08T12:18:55;95940.0;;;20.6;48.3
50166;BME280;36071;48.140;11.516;2023-05-08T12:23:54;95940.0;;;20.8;47.5
50166;BME280;36071;48.140;11.516;2023-05-08T12:28:54;95940.0;;;20.7;48.0
50166;BME280;36071;48.140;11.516;2023-05-08T12:33:54;95940.0;;;20.8;47.0
50166;BME280;36071;48.140;11.516;2023-05-08T12:39:07;95940.0;;;20.8;46.0
50166;BME280;36071;48.140;11.516;2023-05-08T12:43:54;95940.0;;;20.6;46.6
50166;BME280;36071;48.140;11.516;2023-05-08T12:48:59;95910.0;;;20.3;48.3
50166;BME280;36071;48.140;11.516;2023-05-08T12:53:54;95930.0;;;20.7;47.1
50166;BME280;36071;48.140;11.516;2023-05-08T12:58:57;95920.0;;;20.7;47.3
50166;BME280;36071;48.140;11.516;2023-05-08T13:03:54;95930.0;;;20.7;47.6
50166;BME280;36071;48.140;11.516;2023-05-08T13:08:54;95930.0;;;20.6;46.7
50166;BME280;36071;48.140;11.516;2023-05-08T13:13:54;95930.0;;;20.3;48.2
50166;BME280;36071;48.140;11.516;2023-05-08T13:18:54;95930.0;;;20.0;48.7
50166;BME280;36071;48.140;11.516;2023-05-08T13:23:54;95920.0;;;20.0;48.8
50166;BME280;36071;48.140;11.516;2023-05-08T13:28:54;95920.0;;;20.0;49.1
50166;BME280;36071;48.140;11.516;2023-05-08T13:33:54;95920.0;;;19.9;49.7
50166;BME280;36071;48.140;11.516;2023-05-08T13:38:54;95920.0;;;20.0;49.7
50166;BME280;36071;48.140;11.516;2023-05-08T13:43:54;95910.0;;;20.0;49.5
50166;BME280;36071;48.140;11.516;2023-05-08T13:48:54;95900.0;;;20.0;49.2
50166;BME280;36071;48.140;11.516;2023-05-08T13:53:54;95910.0;;;19.8;50.2
50166;BME280;36071;48.140;11.516;2023-05-08T13:58:56;95910.0;;;19.8;49.3
50166;BME280;36071;48.140;11.516;2023-05-08T14:03:54;95920.0;;;19.5;50.5
50166;BME280;36071;48.140;11.516;2023-05-08T14:08:54;95920.0;;;19.5;50.6
50166;BME280;36071;48.140;11.516;2023-05-08T14:13:54;95920.0;;;19.5;49.9
50166;BME280;36071;48.140;11.516;2023-05-08T14:18:55;95920.0;;;19.4;50.0
50166;BME280;36071;48.140;11.516;2023-05-08T14:23:54;95920.0;;;19.3;50.2
50166;BME280;36071;48.140;11.516;2023-05-08T14:28:54;95920.0;;;19.2;48.1
50166;BME280;36071;48.140;11.516;2023-05-08T14:33:54;95920.0;;;19.2;49.0
50166;BME280;36071;48.140;11.516;2023-05-08T14:38:54;95910.0;;;19.3;47.7
50166;BME280;36071;48.140;11.516;2023-05-08T14:43:54;95910.0;;;19.0;46.1
50166;BME280;36071;48.140;11.516;2023-05-08T14:48:54;95900.0;;;18.9;46.3
50166;BME280;36071;48.140;11.516;2023-05-08T14:53:54;95900.0;;;18.9;46.0
50166;BME280;36071;48.140;11.516;2023-05-08T14:58:54;95910.0;;;18.9;48.0
50166;BME280;36071;48.140;11.516;2023-05-08T15:03:55;95910.0;;;18.8;48.5
50166;BME280;36071;48.140;11.516;2023-05-08T15:08:54;95910.0;;;18.7;49.5
50166;BME280;36071;48.140;11.516;2023-05-08T15:13:54;95920.0;;;18.8;49.4
50166;BME280;36071;48.140;11.516;2023-05-08T15:18:54;95910.0;;;18.9;48.5
50166;BME280;36071;48.140;11.516;2023-05-08T15:23:54;95920.0;;;18.7;49.1
50166;BME280;36071;48.140;11.516;2023-05-08T15:28:54;95910.0;;;19.0;49.6
50166;BME280;36071;48.140;11.516;2023-05-08T15:33:54;95920.0;;;19.0;50.7
50166;BME280;36071;48.140;11.516;2023-05-08T15:38:54;95910.0;;;19.0;48.2
50166;BME280;36071;48.140;11.516;2023-05-08T15:43:54;95910.0;;;18.8;49.6
50166;BME280;36071;48.140;11.516;2023-05-08T15:48:54;95910.0;;;18.9;50.2
50166;BME280;36071;48.140;11.516;2023-05-08T15:53:54;95910.0;;;18.9;49.3
50166;BME280;36071;48.140;11.516;2023-05-08T15:58:54;95900.0;;;18.6;49.6
50166;BME280;36071;48.140;11.516;2023-05-08T16:03:54;95910.0;;;18.7;48.7
50166;BME280;36071;48.140;11.516;2023-05-08T16:08:54;95900.0;;;18.5;47.0
50166;BME280;36071;48.140;11.516;2023-05-08T16:13:54;95900.0;;;18.6;49.5
50166;BME280;36071;48.140;11.516;2023-05-08T16:18:54;95900.0;;;18.5;48.7
50166;BME280;36071;48.140;11.516;2023-05-08T16:23:54;95890.0;;;18.4;47.8
50166;BME280;36071;48.140;11.516;2023-05-08T16:28:54;95880.0;;;18.3;49.8
50166;BME280;36071;48.140;11.516;2023-05-08T16:33:54;95890.0;;;18.4;49.0
50166;BME280;36071;48.140;11.516;2023-05-08T16:38:54;95900.0;;;18.2;49.4
50166;BME280;36071;48.140;11.516;2023-05-08T16:43:54;95890.0;;;18.1;50.6
50166;BME280;36071;48.140;11.516;2023-05-08T16:48:54;95900.0;;;18.0;50.1
50166;BME280;36071;48.140;11.516;2023-05-08T16:53:54;95890.0;;;18.0;50.7
50166;BME280;36071;48.140;11.516;2023-05-08T16:58:54;95900.0;;;17.6;51.5
50166;BME280;36071;48.140;11.516;2023-05-08T17:03:54;95900.0;;;17.7;51.4
50166;BME280;36071;48.140;11.516;2023-05-08T17:08:54;95910.0;;;17.6;51.2
50166;BME280;36071;48.140;11.516;2023-05-08T17:13:54;95920.0;;;17.5;51.4
50166;BME280;36071;48.140;11.516;2023-05-08T17:18:54;95910.0;;;17.5;51.8
50166;BME280;36071;48.140;11.516;2023-05-08T17:23:54;95920.0;;;17.5;51.7
50166;BME280;36071;48.140;11.516;2023-05-08T17:28:54;95930.0;;;17.3;52.2
50166;BME280;36071;48.140;11.516;2023-05-08T17:33:54;95930.0;;;17.4;52.4
50166;BME280;36071;48.140;11.516;2023-05-08T17:38:54;95930.0;;;17.3;52.5
50166;BME280;36071;48.140;11.516;2023-05-08T17:43:54;95900.0;;;17.2;53.8
50166;BME280;36071;48.140;11.516;2023-05-08T17:48:54;95930.0;;;17.4;53.8
50166;BME280;36071;48.140;11.516;2023-05-08T17:53:54;95940.0;;;17.3;54.0
50166;BME280;36071;48.140;11.516;2023-05-08T17:58:54;95940.0;;;17.2;54.8
50166;BME280;36071;48.140;11.516;2023-05-08T18:03:54;95950.0;;;17.1;55.3
50166;BME280;36071;48.140;11.516;2023-05-08T18:08:54;95950.0;;;17.1;56.0
50166;BME280;36071;48.140;11.516;2023-05-08T18:13:54;95960.0;;;17.0;56.1
50166;BME280;36071;48.140;11.516;2023-05-08T18:18:54;95960.0;;;16.9;56.8
50166;BME280;36071;48.140;11.516;2023-05-08T18:23:54;95970.0;;;16.9;56.9
50166;BME280;36071;48.140;11.516;2023-05-08T18:28:54;95960.0;;;16.8;56.6
50166;BME280;36071;48.140;11.516;2023-05-08T18:33:54;95960.0;;;16.7;57.2
50166;BME280;36071;48.140;11.516;2023-05-08T18:38:54;95970.0;;;16.7;57.6
50166;BME280;36071;48.140;11.516;2023-05-08T18:43:54;95970.0;;;16.5;57.5
50166;BME280;36071;48.140;11.516;2023-05-08T18:48:54;95970.0;;;16.4;58.0
50166;BME280;36071;48.140;11.516;2023-05-08T18:53:54;95970.0;;;16.5;58.0
50166;BME280;36071;48.140;11.516;2023-05-08T18:58:54;95980.0;;;16.4;58.5
50166;BME280;36071;48.140;11.516;2023-05-08T19:03:54;95980.0;;;16.5;58.6
50166;BME280;36071;48.140;11.516;2023-05-08T19:08:54;95970.0;;;16.4;57.8
50166;BME280;36071;48.140;11.516;2023-05-08T19:13:54;95970.0;;;16.4;58.5
50166;BME280;36071;48.140;11.516;2023-05-08T19:18:54;95980.0;;;16.3;57.1
50166;BME280;36071;48.140;11.516;2023-05-08T19:28:54;95980.0;;;16.2;55.6
50166;BME280;36071;48.140;11.516;2023-05-08T19:33:54;95990.0;;;16.1;55.5
50166;BME280;36071;48.140;11.516;2023-05-08T19:38:54;95980.0;;;15.9;55.8
50166;BME280;36071;48.140;11.516;2023-05-08T19:43:54;95970.0;;;15.9;55.5
50166;BME280;36071;48.140;11.516;2023-05-08T19:48:54;95990.0;;;15.6;55.1
50166;BME280;36071;48.140;11.516;2023-05-08T19:53:54;95990.0;;;15.6;54.5
50166;BME280;36071;48.140;11.516;2023-05-08T19:58:54;95980.0;;;15.6;55.1
50166;BME280;36071;48.140;11.516;2023-05-08T20:03:54;95980.0;;;15.6;55.2
50166;BME280;36071;48.140;11.516;2023-05-08T20:08:54;95990.0;;;15.6;54.9
50166;BME280;36071;48.140;11.516;2023-05-08T20:13:54;95990.0;;;15.5;55.8
50166;BME280;36071;48.140;11.516;2023-05-08T20:18:54;95990.0;;;15.4;56.8
50166;BME280;36071;48.140;11.516;2023-05-08T20:23:54;95980.0;;;15.3;57.1
50166;BME280;36071;48.140;11.516;2023-05-08T20:28:54;95990.0;;;15.3;58.5
50166;BME280;36071;48.140;11.516;2023-05-08T20:33:54;95990.0;;;15.2;59.8
50166;BME280;36071;48.140;11.516;2023-05-08T20:38:54;95980.0;;;15.1;59.3
50166;BME280;36071;48.140;11.516;2023-05-08T20:43:54;95980.0;;;15.0;59.3
50166;BME280;36071;48.140;11.516;2023-05-08T20:48:54;95980.0;;;15.1;59.9
50166;BME280;36071;48.140;11.516;2023-05-08T20:53:54;95970.0;;;15.0;60.0
50166;BME280;36071;48.140;11.516;2023-05-08T20:58:54;95970.0;;;14.9;60.1
50166;BME280;36071;48.140;11.516;2023-05-08T21:04:05;95970.0;;;14.9;60.3
50166;BME280;36071;48.140;11.516;2023-05-08T21:18:54;95960.0;;;14.8;61.1
50166;BME280;36071;48.140;11.516;2023-05-08T21:23:54;95960.0;;;14.7;61.9
50166;BME280;36071;48.140;11.516;2023-05-08T21:28:54;95960.0;;;14.7;61.8
50166;BME280;36071;48.140;11.516;2023-05-08T21:33:54;95960.0;;;14.8;61.9
50166;BME280;36071;48.140;11.516;2023-05-08T21:38:55;95950.0;;;14.7;61.0
50166;BME280;36071;48.140;11.516;2023-05-08T21:43:54;95950.0;;;14.5;60.0
50166;BME280;36071;48.140;11.516;2023-05-08T21:48:54;95940.0;;;14.4;60.3
50166;BME280;36071;48.140;11.516;2023-05-08T21:53:54;95940.0;;;14.4;60.1
50166;BME280;36071;48.140;11.516;2023-05-08T21:58:54;95940.0;;;14.4;59.4
50166;BME280;36071;48.140;11.516;2023-05-08T22:03:54;95930.0;;;14.3;59.1
50166;BME280;36071;48.140;11.516;2023-05-08T22:09:26;95930.0;;;14.1;58.3
50166;BME280;36071;48.140;11.516;2023-05-08T22:13:56;95930.0;;;14.0;58.5
50166;BME280;36071;48.140;11.516;2023-05-08T22:18:56;95930.0;;;14.0;58.8
50166;BME280;36071;48.140;11.516;2023-05-08T22:23:56;95920.0;;;14.0;59.2
50166;BME280;36071;48.140;11.516;2023-05-08T22:28:56;95930.0;;;14.0;58.1
50166;BME280;36071;48.140;11.516;2023-05-08T22:33:56;95920.0;;;13.8;58.0
50166;BME280;36071;48.140;11.516;2023-05-08T22:38:56;95920.0;;;13.8;58.4
50166;BME280;36071;48.140;11.516;2023-05-08T22:43:56;95920.0;;;13.8;58.2
50166;BME280;36071;48.140;11.516;2023-05-08T22:48:56;95930.0;;;13.7;58.8
50166;BME280;36071;48.140;11.516;2023-05-08T22:53:56;95930.0;;;13.6;58.7
50166;BME280;36071;48.140;11.516;2023-05-08T22:58:56;95930.0;;;13.5;58.4
50166;BME280;36071;48.140;11.516;2023-05-08T23:03:56;95920.0;;;13.4;58.6
50166;BME280;36071;48.140;11.516;2023-05-08T23:08:56;95920.0;;;13.4;58.4
50166;BME280;36071;48.140;11.516;2023-05-08T23:13:56;95920.0;;;13.4;58.3
50166;BME280;36071;48.140;11.516;2023-05-08T23:18:56;95910.0;;;13.4;58.1
50166;BME280;36071;48.140;11.516;2023-05-08T23:23:56;95920.0;;;13.3;58.0
50166;BME280;36071;48.140;11.516;2023-05-08T23:28:56;95900.0;;;13.3;57.8
50166;BME280;36071;48.140;11.516;2023-05-08T23:33:56;95910.0;;;13.2;58.1
50166;BME280;36071;48.140;11.516;2023-05-08T23:38:56;95890.0;;;13.3;58.1
50166;BME280;36071;48.140;11.516;2023-05-08T23:43:56;95890.0;;;13.2;58.3
50166;BME280;36071;48.140;11.516;2023-05-08T23:48:56;95890.0;;;13.1;58.5
50166;BME280;36071;48.140;11.516;2023-05-08T23:53:56;95880.0;;;13.1;58.7
50166;BME280;36071;48.140;11.516;2023-05-08T23:58:56;95860.0;;;13.1;59.3
